Observations for PISA CIV IT-AFB, Italy (LIRP)

LIRP 191245Z 25008KT 9999 VCTS SHRA FEW030CB BKN035 23/20 Q1015 TEMPO 5000 TSRA 
LIRP 191215Z 24005KT 9999 VCTS FEW030CB SCT040 25/19 Q1015 TEMPO 5000 TSRA  
LIRP 191145Z 31007KT 9999 VCSH FEW035 SCT040 25/18 Q1015 NOSIG  
LIRP 191115Z 34003KT 9999 FEW035 SCT040 26/17 Q1015 NOSIG   
LIRP 191045Z 02004KT 9999 SCT040 27/17 Q1016 NOSIG  
LIRP 191015Z 05005KT 9999 FEW040 26/17 Q1016 NOSIG  
LIRP 190945Z 11008KT 9999 FEW040 25/17 Q1015 NOSIG  
LIRP 190915Z 12010KT CAVOK 25/17 Q1015 NOSIG
LIRP 190845Z 11008KT CAVOK 25/18 Q1015 NOSIG
LIRP 190815Z 10006KT CAVOK 23/17 Q1015 NOSIG
LIRP 190745Z 13007KT CAVOK 22/18 Q1015 NOSIG
LIRP 190715Z 10005KT 9999 SCT070 20/18 Q1015 NOSIG  
LIRP 190645Z 07002KT 9999 SCT070 20/18 Q1015 NOSIG  
LIRP 190615Z 01002KT 9999 FEW030TCU SCT070 19/18 Q1015 NOSIG
LIRP 190545Z VRB02KT 9999 SCT025 SCT080 18/17 Q1015 NOSIG   
LIRP 190515Z 12003KT 9999 SCT015 SCT020 18/17 Q1014 NOSIG   
LIRP 190445Z VRB02KT 9999 SCT015 SCT020 18/17 Q1014 NOSIG   
LIRP 190415Z 15003KT 9999 FEW015 SCT060 18/17 Q1014 NOSIG   
LIRP 190345Z VRB01KT 9999 SCT060 18/17 Q1014 NOSIG  
LIRP 190315Z 15003KT 9999 SCT070 18/17 Q1014 NOSIG  
LIRP 190245Z VRB01KT 9999 FEW030 18/17 Q1014 NOSIG  
LIRP 190215Z VRB01KT 9999 SCT030 SCT040 19/18 Q1015 NOSIG   
LIRP 190145Z VRB02KT 9999 BKN030 19/18 Q1015 NOSIG  
LIRP 190115Z VRB02KT 9999 FEW030 19/18 Q1014 NOSIG  
LIRP 190045Z VRB02KT 9999 FEW030 19/18 Q1014 NOSIG  
LIRP 190015Z 12004KT 9999 FEW060 19/19 Q1015 NOSIG  
LIRP 182345Z 07003KT 9999 FEW060 19/19 Q1014 NOSIG  
LIRP 182315Z 12004KT 9999 FEW060 19/18 Q1014 NOSIG  
LIRP 182245Z 22003KT 9999 FEW060 19/19 Q1015 NOSIG  
LIRP 182215Z 23003KT 9999 SCT050 20/19 Q1015
LIRP 182145Z VRB01KT 9999 SCT040 20/20 Q1015 NOSIG  
LIRP 182115Z 27001KT 9999 SCT040 21/20 Q1015 NOSIG  
LIRP 182045Z VRB01KT 9999 SCT035 SCT040 20/19 Q1015 NOSIG   
LIRP 182015Z 17002KT 9999 SCT040 20/19 Q1015 NOSIG  
LIRP 181945Z 13003KT 9999 SCT040 21/20 Q1015 NOSIG  
LIRP 181915Z VRB02KT 9999 FEW050 22/20 Q1015 NOSIG  
LIRP 181845Z 31003KT CAVOK 22/20 Q1015 NOSIG
LIRP 181815Z VRB02KT 9999 FEW030 22/21 Q1015 NOSIG  
LIRP 181745Z 29005KT 9999 FEW030 23/21 Q1014 NOSIG  
LIRP 181715Z 26005KT 9999 FEW030 24/20 Q1014 NOSIG  
LIRP 181645Z 26005KT 9999 FEW025 25/19 Q1014 NOSIG  
LIRP 181615Z 26005KT 9999 FEW025 25/18 Q1014 NOSIG  
LIRP 181545Z 27005KT 9999 FEW025 26/19 Q1014 NOSIG  
LIRP 181515Z 27007KT 9999 FEW025 26/18 Q1014 NOSIG  
LIRP 181445Z 27007KT 9999 FEW025 26/18 Q1014 NOSIG  
LIRP 181415Z 28007KT 9999 FEW025 26/18 Q1015 NOSIG  
LIRP 181345Z 28007KT 9999 FEW025 26/19 Q1015 NOSIG  
LIRP 181315Z 28009KT 9999 FEW025 26/19 Q1015 NOSIG  
LIRP 181245Z 25010KT 9999 FEW025 26/20 Q1015 NOSIG  
LIRP 181215Z 27007KT 9999 SCT025 26/20 Q1015 NOSIG